Time;durP1;ratioP1;P1;durP2;ratioP2;P2;SDS_P1;SDS_P2;PMS_P1;PMS_P2;Temp;Humidity;BMP_temperature;BMP_pressure;BME280_temperature;BME280_humidity;BME280_pressure;Samples;Min_cycle;Max_cycle;Signal;HPM_P1;HPM_P2
2021/03/25 00:00:46;;;;;;;3.10;1.10;;;20.30;79.20;;;;;;5002796;28;96102;-48
2021/03/25 00:03:19;;;;;;;4.22;1.52;;;20.20;79.10;;;;;;4984983;28;95727;-51
2021/03/25 00:05:51;;;;;;;2.30;1.50;;;20.20;79.10;;;;;;4988051;28;96669;-49
2021/03/25 00:08:25;;;;;;;2.70;1.33;;;20.10;79.20;;;;;;4983692;28;96330;-48
2021/03/25 00:10:55;;;;;;;2.75;1.60;;;20.10;79.10;;;;;;4984871;28;95983;-48
2021/03/25 00:13:24;;;;;;;4.68;1.50;;;20.10;78.90;;;;;;4983782;28;95933;-49
2021/03/25 00:15:54;;;;;;;2.92;1.13;;;20.10;78.50;;;;;;4984191;28;96198;-48
2021/03/25 00:18:26;;;;;;;3.15;1.50;;;20.10;78.60;;;;;;4989281;28;96193;-52
2021/03/25 00:20:57;;;;;;;3.08;1.30;;;20.10;78.60;;;;;;4998706;28;95380;-48
2021/03/25 00:23:28;;;;;;;3.92;1.42;;;20.10;78.80;;;;;;4985131;28;96912;-51
2021/03/25 00:26:00;;;;;;;6.40;1.55;;;20.10;78.80;;;;;;4983025;28;96094;-49
2021/03/25 00:28:31;;;;;;;4.93;1.53;;;20.20;78.70;;;;;;4982968;28;95896;-50
2021/03/25 00:31:01;;;;;;;4.18;1.40;;;20.30;78.50;;;;;;4990828;28;95720;-46
2021/03/25 00:33:32;;;;;;;4.38;1.25;;;20.40;78.40;;;;;;4986973;28;95492;-49
2021/03/25 00:36:04;;;;;;;3.95;1.30;;;20.40;78.10;;;;;;4984032;28;96336;-50
2021/03/25 00:38:35;;;;;;;2.25;1.38;;;20.50;77.80;;;;;;4983220;28;96103;-48
2021/03/25 00:41:06;;;;;;;;;;;20.50;77.90;;;;;;4984577;28;95763;-47
2021/03/25 00:43:37;;;;;;;3.63;1.40;;;20.50;77.40;;;;;;4987581;28;95344;-49
2021/03/25 00:46:07;;;;;;;8.45;1.65;;;20.50;77.30;;;;;;4982502;28;96404;-53
2021/03/25 00:48:37;;;;;;;3.65;1.30;;;20.50;77.10;;;;;;4989554;28;96226;-49
2021/03/25 00:51:07;;;;;;;2.85;1.55;;;20.40;77.20;;;;;;4985073;28;95745;-51
2021/03/25 00:53:38;;;;;;;4.75;1.95;;;20.40;77.40;;;;;;4987227;28;95543;-49
2021/03/25 00:56:11;;;;;;;3.10;1.10;;;20.40;77.60;;;;;;4984333;28;97045;-48
2021/03/25 00:58:41;;;;;;;5.72;1.55;;;20.30;77.70;;;;;;4987811;28;95445;-50
2021/03/25 01:01:12;;;;;;;4.40;1.50;;;20.30;77.50;;;;;;4983067;28;95874;-49
2021/03/25 01:03:41;;;;;;;2.45;1.08;;;20.30;77.40;;;;;;4986014;28;95715;-50
2021/03/25 01:06:12;;;;;;;4.93;1.50;;;20.30;77.60;;;;;;4984114;28;96116;-50
2021/03/25 01:08:43;;;;;;;3.80;1.75;;;20.30;77.30;;;;;;4986324;28;96107;-50
2021/03/25 01:11:19;;;;;;;4.88;1.35;;;20.30;77.50;;;;;;4983264;28;95737;-46
2021/03/25 01:13:52;;;;;;;3.90;1.45;;;20.30;77.60;;;;;;4985645;28;95928;-49
2021/03/25 01:16:28;;;;;;;2.22;1.30;;;20.40;77.50;;;;;;4981735;28;96005;-52
2021/03/25 01:19:05;;;;;;;3.97;1.42;;;20.50;77.00;;;;;;4984104;28;98578;-50
2021/03/25 01:21:38;;;;;;;3.33;1.05;;;20.70;76.40;;;;;;4977187;28;96604;-47
2021/03/25 01:27:06;;;;;;;2.22;1.20;;;20.80;76.40;;;;;;4983779;28;96538;-50
2021/03/25 01:29:38;;;;;;;2.13;0.90;;;20.90;76.20;;;;;;4991830;28;95610;-46
2021/03/25 01:32:10;;;;;;;6.28;1.23;;;21.00;76.10;;;;;;4995265;28;95322;-51
2021/03/25 01:34:43;;;;;;;3.40;1.50;;;21.10;75.90;;;;;;4982350;28;95760;-50
2021/03/25 01:37:17;;;;;;;3.45;1.02;;;21.20;75.90;;;;;;4981911;28;102387;-50
2021/03/25 01:40:28;;;;;;;2.92;1.15;;;21.30;75.70;;;;;;4990350;28;96333;-47
2021/03/25 01:43:32;;;;;;;2.95;0.90;;;21.50;75.30;;;;;;5005214;28;96069;-53
2021/03/25 01:46:20;;;;;;;3.05;1.05;;;21.70;75.00;;;;;;4972583;28;95436;-48
2021/03/25 01:49:03;;;;;;;1.73;1.17;;;21.90;74.60;;;;;;4985548;28;96052;-55
2021/03/25 01:52:04;;;;;;;1.63;1.13;;;22.00;74.20;;;;;;4982855;28;96085;-53
2021/03/25 01:55:09;;;;;;;0.95;0.75;;;22.30;73.80;;;;;;4999884;28;95636;-53
2021/03/25 01:57:58;;;;;;;1.67;1.10;;;22.40;73.50;;;;;;4970005;28;96041;-50
2021/03/25 02:00:52;;;;;;;1.63;1.10;;;22.50;73.10;;;;;;4985051;28;96170;-50
2021/03/25 02:03:46;;;;;;;1.38;1.00;;;22.60;73.00;;;;;;4976933;28;105542;-51
2021/03/25 02:06:38;;;;;;;1.13;0.90;;;22.70;72.70;;;;;;4986682;28;96421;-52
2021/03/25 02:09:20;;;;;;;1.33;0.80;;;22.80;72.60;;;;;;4980195;28;96179;-50
2021/03/25 02:12:47;;;;;;;1.55;0.85;;;23.00;72.30;;;;;;4987737;28;96058;-52
2021/03/25 02:15:39;;;;;;;1.10;1.00;;;23.10;72.00;;;;;;4984014;28;98015;-56
2021/03/25 02:18:31;;;;;;;1.10;0.60;;;23.20;71.80;;;;;;4990728;28;95673;-51
2021/03/25 02:21:17;;;;;;;1.50;0.90;;;23.30;71.50;;;;;;4999944;28;96008;-53
2021/03/25 02:24:13;;;;;;;3.45;1.42;;;23.40;71.40;;;;;;4979626;28;98386;-51
2021/03/25 02:27:11;;;;;;;5.93;1.58;;;23.30;68.80;;;;;;4997874;28;96058;-53
2021/03/25 02:29:56;;;;;;;2.40;0.90;;;23.00;69.10;;;;;;4957610;28;95762;-50
2021/03/25 02:32:37;;;;;;;7.20;1.73;;;22.70;70.40;;;;;;4983542;28;95911;-58
2021/03/25 02:35:28;;;;;;;2.22;1.05;;;22.50;71.10;;;;;;4978734;28;97465;-49
2021/03/25 02:38:21;;;;;;;2.20;1.10;;;22.40;72.00;;;;;;4998506;28;96323;-49
2021/03/25 02:40:56;;;;;;;5.03;1.55;;;22.30;71.80;;;;;;4982412;28;95749;-53
2021/03/25 02:43:47;;;;;;;1.42;0.90;;;22.10;72.10;;;;;;4998072;28;95823;-54
2021/03/25 02:46:24;;;;;;;2.67;1.05;;;22.00;72.40;;;;;;4982857;28;96159;-58
2021/03/25 02:49:01;;;;;;;3.60;1.30;;;21.90;72.20;;;;;;4978614;28;96642;-57
2021/03/25 02:51:48;;;;;;;2.97;1.50;;;21.80;72.30;;;;;;4986363;28;95980;-56
2021/03/25 02:54:22;;;;;;;4.28;1.25;;;21.80;73.00;;;;;;4982506;28;96110;-57
2021/03/25 02:57:00;;;;;;;3.15;1.40;;;21.80;73.40;;;;;;4981932;28;96990;-56
2021/03/25 02:59:31;;;;;;;4.72;1.92;;;21.80;73.90;;;;;;4983242;28;95781;-57
2021/03/25 03:02:10;;;;;;;3.67;1.40;;;21.70;74.00;;;;;;4988630;28;95727;-57
2021/03/25 03:04:44;;;;;;;2.75;1.30;;;21.70;74.20;;;;;;4981785;28;95942;-57
2021/03/25 03:07:29;;;;;;;2.30;1.17;;;21.70;74.20;;;;;;5000761;28;97040;-57
2021/03/25 03:10:35;;;;;;;3.05;1.30;;;21.60;74.40;;;;;;4969197;28;96537;-56
2021/03/25 03:13:09;;;;;;;0.95;0.88;;;21.60;74.50;;;;;;4986140;28;95392;-51
2021/03/25 03:16:10;;;;;;;2.75;0.80;;;21.80;74.70;;;;;;4982318;28;96411;-56
2021/03/25 03:18:58;;;;;;;3.60;1.48;;;21.90;74.30;;;;;;4982150;28;96247;-56
2021/03/25 03:21:56;;;;;;;1.83;1.13;;;22.10;74.20;;;;;;4983920;28;96098;-56
2021/03/25 03:24:53;;;;;;;1.55;1.23;;;22.20;74.00;;;;;;4983426;28;95865;-56
2021/03/25 03:28:02;;;;;;;2.55;1.20;;;22.30;73.90;;;;;;4981583;27;96424;-57
2021/03/25 03:30:41;;;;;;;2.90;1.17;;;22.40;73.80;;;;;;4977145;28;96334;-57
2021/03/25 03:33:32;;;;;;;1.80;0.65;;;22.40;73.70;;;;;;4998315;28;96073;-57
2021/03/25 03:36:13;;;;;;;3.38;1.05;;;22.50;73.70;;;;;;4980145;28;95629;-57
2021/03/25 03:38:51;;;;;;;1.10;0.70;;;22.50;73.80;;;;;;4984030;28;96055;-62
2021/03/25 03:41:34;;;;;;;0.90;0.70;;;22.60;73.90;;;;;;4980848;28;103050;-57
2021/03/25 03:44:10;;;;;;;0.77;0.57;;;22.60;73.90;;;;;;4984270;28;95828;-58
2021/03/25 03:46:43;;;;;;;1.83;0.80;;;22.70;73.90;;;;;;4979573;28;96024;-56
2021/03/25 03:49:41;;;;;;;1.23;1.10;;;22.70;74.00;;;;;;5000723;28;95966;-55
2021/03/25 03:52:21;;;;;;;2.25;0.90;;;22.70;73.90;;;;;;4962522;28;102246;-57
2021/03/25 03:55:01;;;;;;;1.38;1.00;;;22.80;74.00;;;;;;4983147;28;97979;-55
2021/03/25 03:57:39;;;;;;;2.63;1.00;;;22.80;72.90;;;;;;4982612;28;95922;-52
2021/03/25 04:00:49;;;;;;;2.80;1.17;;;22.70;72.70;;;;;;4982090;28;96417;-55
2021/03/25 04:03:36;;;;;;;1.88;0.90;;;22.60;72.80;;;;;;4976652;28;98723;-52
2021/03/25 04:06:13;;;;;;;1.17;0.70;;;22.50;73.10;;;;;;4981820;28;96355;-52
2021/03/25 04:09:16;;;;;;;4.72;1.40;;;22.50;72.80;;;;;;4983842;28;101498;-52
2021/03/25 04:12:02;;;;;;;2.20;1.05;;;22.40;72.80;;;;;;4984768;28;95911;-55
2021/03/25 04:14:59;;;;;;;1.83;0.80;;;22.40;72.80;;;;;;4984873;28;97312;-54
2021/03/25 04:17:42;;;;;;;3.53;1.13;;;22.40;72.80;;;;;;4978866;28;96076;-51
2021/03/25 04:20:34;;;;;;;2.10;0.90;;;22.40;73.10;;;;;;4982921;28;96888;-55
2021/03/25 04:23:32;;;;;;;1.65;0.93;;;22.40;73.10;;;;;;4981878;28;96009;-53
2021/03/25 04:26:19;;;;;;;1.75;1.13;;;22.40;73.00;;;;;;4984327;28;97104;-57
2021/03/25 04:28:59;;;;;;;1.85;1.00;;;22.50;73.00;;;;;;4981982;28;100182;-59
2021/03/25 04:31:31;;;;;;;3.15;1.00;;;22.50;73.00;;;;;;4986139;28;95628;-55
2021/03/25 04:34:06;;;;;;;2.60;1.35;;;22.50;72.00;;;;;;4982542;28;95385;-54
2021/03/25 04:36:45;;;;;;;2.42;1.00;;;22.30;72.60;;;;;;4985012;28;96527;-59
2021/03/25 04:39:18;;;;;;;1.50;0.95;;;22.20;73.30;;;;;;4981045;28;95642;-54
2021/03/25 04:41:51;;;;;;;4.10;1.38;;;22.10;74.30;;;;;;4984359;28;96044;-56
2021/03/25 04:44:45;;;;;;;2.35;1.30;;;22.00;73.90;;;;;;4983504;28;95989;-53
2021/03/25 04:47:21;;;;;;;2.67;1.38;;;22.00;74.10;;;;;;4986088;28;97526;-56
2021/03/25 04:50:24;;;;;;;2.65;1.13;;;22.10;73.70;;;;;;4984928;28;96068;-51
2021/03/25 04:53:17;;;;;;;1.67;1.25;;;22.20;73.30;;;;;;4983357;28;96020;-58
2021/03/25 04:55:49;;;;;;;2.33;1.38;;;22.20;73.60;;;;;;4985969;28;96138;-55
2021/03/25 04:58:35;;;;;;;3.30;1.23;;;22.30;73.60;;;;;;4988949;28;96875;-54
2021/03/25 05:01:20;;;;;;;1.33;0.90;;;22.40;73.50;;;;;;4986257;28;95922;-54
2021/03/25 05:03:55;;;;;;;2.08;1.05;;;22.50;73.30;;;;;;4988201;28;95655;-55
2021/03/25 05:06:43;;;;;;;2.47;0.98;;;22.50;73.30;;;;;;4988456;28;95829;-55
2021/03/25 05:09:14;;;;;;;2.20;1.38;;;22.60;73.10;;;;;;5000546;28;98661;-58
2021/03/25 05:11:45;;;;;;;2.00;0.88;;;22.60;72.90;;;;;;4982733;28;96092;-55
2021/03/25 05:14:23;;;;;;;0.95;0.80;;;22.70;72.80;;;;;;4987613;28;97396;-56
2021/03/25 05:16:56;;;;;;;1.85;1.13;;;22.70;72.60;;;;;;4989585;28;95366;-53
2021/03/25 05:19:57;;;;;;;1.92;1.08;;;22.80;72.50;;;;;;4988042;28;95751;-53
2021/03/25 05:22:36;;;;;;;2.50;1.20;;;22.80;72.40;;;;;;4987550;28;95875;-50
2021/03/25 05:25:21;;;;;;;1.15;0.77;;;22.80;72.40;;;;;;4984754;28;95740;-56
2021/03/25 05:27:59;;;;;;;2.10;0.90;;;22.80;72.30;;;;;;4986166;28;95927;-54
2021/03/25 05:30:38;;;;;;;1.10;0.88;;;22.80;72.10;;;;;;4984569;28;96418;-54
2021/03/25 05:33:16;;;;;;;2.53;1.05;;;22.90;72.00;;;;;;4985878;28;96987;-55
2021/03/25 05:36:12;;;;;;;2.70;1.00;;;22.80;72.00;;;;;;4982433;28;97031;-55
2021/03/25 05:38:42;;;;;;;3.95;1.45;;;22.80;71.90;;;;;;4986367;28;96355;-52
2021/03/25 05:41:37;;;;;;;3.63;1.08;;;22.70;70.70;;;;;;4981744;28;98881;-53
2021/03/25 05:44:59;;;;;;;4.13;1.65;;;22.50;71.30;;;;;;4986234;28;96066;-55
2021/03/25 05:47:51;;;;;;;3.33;1.10;;;22.30;72.20;;;;;;4983777;28;96784;-54
2021/03/25 05:50:45;;;;;;;5.43;1.70;;;22.30;72.40;;;;;;4985407;28;95908;-54
2021/03/25 05:53:19;;;;;;;3.72;1.20;;;22.20;72.80;;;;;;4985641;28;96247;-57
2021/03/25 05:55:49;;;;;;;2.65;0.90;;;22.20;73.10;;;;;;4987393;28;95630;-54
2021/03/25 05:58:36;;;;;;;1.17;0.88;;;22.20;73.00;;;;;;4985312;28;95665;-55
2021/03/25 06:01:25;;;;;;;1.40;0.93;;;22.10;73.00;;;;;;4986914;28;96016;-56
2021/03/25 06:04:03;;;;;;;2.05;1.35;;;22.10;73.20;;;;;;4987182;28;96245;-56
2021/03/25 06:06:41;;;;;;;2.63;0.90;;;22.10;73.30;;;;;;4984387;28;96434;-56
2021/03/25 06:09:27;;;;;;;1.92;1.02;;;22.10;73.40;;;;;;5001216;28;95330;-55
2021/03/25 06:12:10;;;;;;;1.55;1.00;;;22.10;73.50;;;;;;4983513;28;95874;-55
2021/03/25 06:15:09;;;;;;;1.20;1.08;;;22.00;73.40;;;;;;4986270;28;96732;-57
2021/03/25 06:17:58;;;;;;;3.30;1.17;;;22.00;73.80;;;;;;4982137;28;95579;-55
2021/03/25 06:20:55;;;;;;;1.77;0.90;;;22.00;73.90;;;;;;4985264;28;98298;-54
2021/03/25 06:23:25;;;;;;;2.50;1.52;;;22.10;73.70;;;;;;4984243;28;95188;-56
2021/03/25 06:25:56;;;;;;;2.08;1.25;;;22.00;73.80;;;;;;4988624;28;96128;-53
2021/03/25 06:28:43;;;;;;;2.50;1.10;;;22.10;73.80;;;;;;4987085;28;96010;-51
2021/03/25 06:31:24;;;;;;;2.67;1.25;;;22.00;73.60;;;;;;4989860;28;96333;-56
2021/03/25 06:34:07;;;;;;;2.13;1.33;;;22.00;73.70;;;;;;4988481;28;97886;-57
2021/03/25 06:36:46;;;;;;;3.90;1.02;;;22.00;74.50;;;;;;4988353;28;96644;-56
2021/03/25 06:39:33;;;;;;;2.35;1.20;;;22.00;74.20;;;;;;4986556;28;95875;-55
2021/03/25 06:42:16;;;;;;;1.45;1.05;;;22.10;74.70;;;;;;4990382;28;95839;-51
2021/03/25 06:44:59;;;;;;;4.47;1.48;;;22.10;74.50;;;;;;4986749;28;97198;-56
2021/03/25 06:47:56;;;;;;;3.95;1.25;;;22.00;74.50;;;;;;4988070;28;96629;-56
2021/03/25 06:50:49;;;;;;;6.45;1.55;;;22.20;74.50;;;;;;4988132;28;96378;-56
2021/03/25 06:53:31;;;;;;;4.05;1.08;;;22.10;74.50;;;;;;4987346;28;95340;-53
2021/03/25 06:56:10;;;;;;;5.95;1.55;;;22.10;74.50;;;;;;4991615;28;96529;-52
2021/03/25 06:58:49;;;;;;;2.40;1.15;;;22.20;74.40;;;;;;4985477;28;96411;-49
2021/03/25 07:01:28;;;;;;;8.07;1.25;;;22.10;74.00;;;;;;4988924;28;95550;-50
2021/03/25 07:04:06;;;;;;;1.67;1.02;;;22.10;74.10;;;;;;4985430;28;95728;-44
2021/03/25 07:06:36;;;;;;;5.38;1.00;;;22.10;74.70;;;;;;4987926;28;96031;-51
2021/03/25 07:09:06;;;;;;;4.03;1.50;;;22.00;74.20;;;;;;4980729;28;99366;-50
2021/03/25 07:11:37;;;;;;;2.42;1.20;;;22.00;74.50;;;;;;4986754;28;95813;-49
2021/03/25 07:14:18;;;;;;;2.38;1.17;;;21.90;74.40;;;;;;4983015;28;100099;-48
2021/03/25 07:16:50;;;;;;;2.30;1.08;;;21.80;74.40;;;;;;4987498;28;95772;-48
2021/03/25 07:19:22;;;;;;;2.42;0.95;;;21.80;74.50;;;;;;4983482;28;97343;-49
2021/03/25 07:22:14;;;;;;;4.03;1.55;;;21.80;74.60;;;;;;4986097;28;95928;-48
2021/03/25 07:24:49;;;;;;;2.20;1.10;;;21.80;74.70;;;;;;4982565;28;96496;-48
2021/03/25 07:27:47;;;;;;;3.00;1.23;;;21.70;74.70;;;;;;4986068;28;95880;-49
2021/03/25 07:30:49;;;;;;;3.13;1.63;;;21.70;75.00;;;;;;4984217;28;95878;-51
2021/03/25 07:33:28;;;;;;;4.38;1.55;;;21.70;75.20;;;;;;4986100;28;96486;-50
2021/03/25 07:36:11;;;;;;;5.38;1.42;;;21.70;75.40;;;;;;4980528;28;95799;-50
2021/03/25 07:38:44;;;;;;;5.30;1.95;;;21.60;75.40;;;;;;4986518;28;95934;-48
2021/03/25 07:41:22;;;;;;;4.30;1.90;;;21.60;75.40;;;;;;4980001;28;96878;-50
2021/03/25 07:43:55;;;;;;;3.17;1.85;;;21.60;75.70;;;;;;4983085;28;96887;-48
2021/03/25 07:46:43;;;;;;;4.60;1.88;;;21.60;75.70;;;;;;4983986;28;96808;-48
2021/03/25 07:49:17;;;;;;;4.47;2.03;;;21.50;75.80;;;;;;4986742;28;95784;-50
2021/03/25 07:51:52;;;;;;;6.97;1.98;;;21.50;76.00;;;;;;4990822;28;97557;-50
2021/03/25 07:54:38;;;;;;;5.60;1.95;;;21.40;76.10;;;;;;4987395;28;96250;-48
2021/03/25 07:57:12;;;;;;;5.53;2.00;;;21.40;76.80;;;;;;4982965;28;101141;-49
2021/03/25 07:59:52;;;;;;;4.18;2.28;;;21.40;76.20;;;;;;4985615;28;96035;-48
2021/03/25 08:02:37;;;;;;;4.07;2.53;;;21.40;76.20;;;;;;4982694;28;96964;-49
2021/03/25 08:05:31;;;;;;;5.72;1.92;;;21.30;76.20;;;;;;4985686;28;96648;-48
2021/03/25 08:08:18;;;;;;;4.85;1.80;;;21.30;76.40;;;;;;4984349;28;102270;-50
2021/03/25 08:10:51;;;;;;;3.78;1.90;;;21.30;76.50;;;;;;4987679;28;96039;-49
2021/03/25 08:13:31;;;;;;;3.85;1.58;;;21.30;76.70;;;;;;4983603;28;96090;-49
2021/03/25 08:16:11;;;;;;;4.00;1.85;;;21.30;76.60;;;;;;4984694;28;96028;-49
2021/03/25 08:18:56;;;;;;;5.97;1.83;;;21.30;76.70;;;;;;4982460;28;96432;-48
2021/03/25 08:21:42;;;;;;;4.97;1.80;;;21.20;76.60;;;;;;4985874;28;95946;-48
2021/03/25 08:24:47;;;;;;;4.38;1.63;;;21.20;76.60;;;;;;4984182;28;96067;-48
2021/03/25 08:27:34;;;;;;;2.88;1.60;;;21.20;76.90;;;;;;4983086;28;95770;-49
2021/03/25 08:30:37;;;;;;;3.33;1.50;;;21.20;77.10;;;;;;4986399;28;95384;-51
2021/03/25 08:33:33;;;;;;;2.47;1.77;;;21.10;77.30;;;;;;4979821;28;95652;-48
2021/03/25 08:36:22;;;;;;;4.10;1.70;;;21.10;77.40;;;;;;4985154;28;96940;-50
2021/03/25 08:39:09;;;;;;;4.47;1.92;;;21.10;77.30;;;;;;4981365;28;96122;-48
2021/03/25 08:42:04;;;;;;;3.08;1.55;;;21.00;77.40;;;;;;4983946;28;97621;-49
2021/03/25 08:44:41;;;;;;;6.38;2.22;;;21.00;77.40;;;;;;4981193;28;96047;-47
2021/03/25 08:47:47;;;;;;;4.15;1.65;;;20.90;77.40;;;;;;4981920;28;97201;-48
2021/03/25 08:50:36;;;;;;;3.17;1.77;;;20.80;77.50;;;;;;4983023;28;96984;-50
2021/03/25 08:53:25;;;;;;;3.55;1.30;;;20.80;77.60;;;;;;4983149;28;95932;-48
2021/03/25 08:55:58;;;;;;;5.78;1.60;;;20.80;77.60;;;;;;4986700;28;95824;-50
2021/03/25 08:58:36;;;;;;;1.98;1.42;;;20.80;77.60;;;;;;4981948;28;96662;-49
2021/03/25 09:01:13;;;;;;;3.55;2.15;;;20.80;77.50;;;;;;4986357;28;96630;-48
2021/03/25 09:03:54;;;;;;;3.65;1.63;;;20.70;77.50;;;;;;4979917;28;96285;-51
2021/03/25 09:06:35;;;;;;;2.78;1.10;;;20.70;77.60;;;;;;4985168;28;96081;-48
2021/03/25 09:09:17;;;;;;;2.38;1.70;;;20.70;77.50;;;;;;4981623;28;96628;-49
2021/03/25 09:11:47;;;;;;;3.90;1.35;;;20.60;77.40;;;;;;4986330;28;95720;-49
2021/03/25 09:14:24;;;;;;;2.58;1.23;;;20.60;77.60;;;;;;4982570;28;95434;-48
2021/03/25 09:17:16;;;;;;;3.72;1.50;;;20.60;77.50;;;;;;4985816;28;95780;-50
2021/03/25 09:20:11;;;;;;;1.30;1.10;;;20.50;77.60;;;;;;4982186;28;96607;-48
2021/03/25 09:22:51;;;;;;;2.80;1.33;;;20.50;77.60;;;;;;4981706;28;96346;-47
2021/03/25 09:25:24;;;;;;;2.72;1.45;;;20.40;77.60;;;;;;4981340;28;95824;-49
2021/03/25 09:27:59;;;;;;;;;;;20.40;77.60;;;;;;4984494;28;95832;-48
2021/03/25 09:30:43;;;;;;;3.30;1.17;;;20.40;77.60;;;;;;4985820;28;96350;-47
2021/03/25 09:33:42;;;;;;;3.13;1.42;;;20.30;77.60;;;;;;4984858;28;96309;-49
2021/03/25 09:36:18;;;;;;;4.10;1.05;;;20.30;77.70;;;;;;4981402;28;96258;-49
2021/03/25 09:38:58;;;;;;;2.00;1.10;;;20.30;77.80;;;;;;4982367;28;95982;-48
2021/03/25 09:41:31;;;;;;;3.55;1.40;;;20.30;77.70;;;;;;4980606;28;96743;-49
2021/03/25 09:44:25;;;;;;;2.85;1.20;;;20.30;77.60;;;;;;4985416;28;96335;-51
2021/03/25 09:46:59;;;;;;;2.60;1.35;;;20.30;77.50;;;;;;4977675;28;95808;-48
2021/03/25 09:49:29;;;;;;;2.28;1.00;;;20.30;77.40;;;;;;4999538;28;96059;-48
2021/03/25 09:52:12;;;;;;;3.53;1.15;;;20.30;77.40;;;;;;4983042;28;96723;-48
2021/03/25 09:55:09;;;;;;;2.15;0.95;;;20.30;77.30;;;;;;4984931;28;95652;-49
2021/03/25 09:57:52;;;;;;;2.47;1.15;;;20.30;77.20;;;;;;4997737;28;95708;-49
2021/03/25 10:00:27;;;;;;;1.75;0.95;;;20.20;77.20;;;;;;4981783;28;95691;-48
2021/03/25 10:03:06;;;;;;;0.88;0.85;;;20.20;77.20;;;;;;4982890;28;96665;-51
2021/03/25 10:05:43;;;;;;;2.38;1.27;;;20.20;77.10;;;;;;4981491;28;95800;-50
2021/03/25 10:08:15;;;;;;;2.25;1.52;;;20.20;77.20;;;;;;4999793;28;95448;-52
2021/03/25 10:11:07;;;;;;;2.75;1.40;;;20.20;77.10;;;;;;4984687;28;96142;-49
2021/03/25 10:13:44;;;;;;;2.00;1.10;;;20.20;77.00;;;;;;4984461;28;96571;-49
2021/03/25 10:16:36;;;;;;;1.58;1.30;;;20.20;77.00;;;;;;4982009;28;96270;-48
2021/03/25 10:19:10;;;;;;;1.92;1.30;;;20.20;76.90;;;;;;4984077;28;97213;-48
2021/03/25 10:21:48;;;;;;;2.13;1.23;;;20.20;76.80;;;;;;4979563;28;95373;-50
2021/03/25 10:24:23;;;;;;;1.38;1.25;;;20.20;76.70;;;;;;4997232;28;98174;-50
2021/03/25 10:27:19;;;;;;;1.55;1.30;;;20.20;76.70;;;;;;4978635;28;97133;-48
2021/03/25 10:29:50;;;;;;;2.03;1.25;;;20.10;76.70;;;;;;4983075;28;96353;-48
2021/03/25 10:32:42;;;;;;;3.70;1.40;;;20.10;76.60;;;;;;4981011;28;96526;-48
2021/03/25 10:35:25;;;;;;;;;;;20.10;76.60;;;;;;4982333;28;96595;-48
2021/03/25 10:37:59;;;;;;;2.28;1.20;;;20.10;76.70;;;;;;4982752;28;96514;-48
2021/03/25 10:40:35;;;;;;;3.53;1.63;;;20.10;76.70;;;;;;4984070;28;95673;-49
2021/03/25 10:43:09;;;;;;;2.28;1.08;;;20.10;76.70;;;;;;4981666;28;95970;-49
2021/03/25 10:45:51;;;;;;;4.30;1.67;;;20.10;76.60;;;;;;4980661;28;96208;-48
2021/03/25 10:48:28;;;;;;;2.33;1.08;;;20.10;76.70;;;;;;4978564;28;98037;-48
2021/03/25 10:51:21;;;;;;;1.83;1.27;;;20.10;76.80;;;;;;4984836;28;97006;-48
2021/03/25 10:53:56;;;;;;;2.67;1.13;;;20.00;76.70;;;;;;4982103;28;95714;-48
2021/03/25 10:56:32;;;;;;;1.35;1.25;;;20.10;76.70;;;;;;4987310;28;96121;-49
2021/03/25 10:59:10;;;;;;;4.32;1.60;;;20.00;76.60;;;;;;4981572;28;96377;-50
2021/03/25 11:01:51;;;;;;;2.20;1.20;;;20.00;76.60;;;;;;4982845;28;95856;-49
2021/03/25 11:04:28;;;;;;;;;;;20.00;76.70;;;;;;4980012;28;95784;-49
2021/03/25 11:07:12;;;;;;;2.42;1.17;;;20.00;76.60;;;;;;4986015;28;96365;-48
2021/03/25 11:09:57;;;;;;;1.70;0.95;;;20.00;76.60;;;;;;4980746;28;95733;-48
2021/03/25 11:12:32;;;;;;;2.28;1.90;;;19.90;76.50;;;;;;4987322;28;97506;-49
2021/03/25 11:15:17;;;;;;;2.72;0.95;;;19.90;76.50;;;;;;4982622;28;95770;-48
2021/03/25 11:17:49;;;;;;;2.20;1.50;;;19.90;76.50;;;;;;4985130;28;97871;-47
2021/03/25 11:20:25;;;;;;;1.70;1.10;;;19.90;76.50;;;;;;4981346;28;95790;-49
2021/03/25 11:22:58;;;;;;;1.58;1.33;;;19.90;76.50;;;;;;4988407;28;97611;-49
2021/03/25 11:25:32;;;;;;;1.58;1.02;;;19.90;76.40;;;;;;4983839;28;96375;-49
2021/03/25 11:28:11;;;;;;;1.83;1.40;;;19.90;76.40;;;;;;4988113;28;95941;-48
2021/03/25 11:30:46;;;;;;;2.38;1.58;;;19.90;76.50;;;;;;4984491;28;99827;-48
2021/03/25 11:33:30;;;;;;;3.90;1.65;;;19.80;76.30;;;;;;4987610;28;95750;-50
2021/03/25 11:36:06;;;;;;;2.00;1.70;;;19.90;76.40;;;;;;4984296;28;97608;-51
2021/03/25 11:38:40;;;;;;;2.20;1.52;;;19.80;77.00;;;;;;4999510;28;96425;-49
2021/03/25 11:41:32;;;;;;;2.05;1.60;;;19.80;76.30;;;;;;4984025;28;96275;-48
2021/03/25 11:44:05;;;;;;;4.60;1.50;;;19.80;76.30;;;;;;4987286;28;97509;-49
2021/03/25 11:46:45;;;;;;;3.47;1.48;;;19.80;76.10;;;;;;4984517;28;95985;-54
2021/03/25 11:49:19;;;;;;;2.50;1.45;;;19.80;76.70;;;;;;4988229;28;96246;-49
2021/03/25 11:52:03;;;;;;;2.50;1.50;;;19.70;76.80;;;;;;4979405;28;97718;-48
2021/03/25 11:54:37;;;;;;;1.80;1.70;;;19.70;76.80;;;;;;4986866;28;96171;-48
2021/03/25 11:57:23;;;;;;;2.22;1.60;;;19.70;76.80;;;;;;4984689;28;95415;-48
2021/03/25 12:00:11;;;;;;;3.25;1.58;;;19.60;76.90;;;;;;4987172;28;97037;-49
2021/03/25 12:02:45;;;;;;;3.05;1.38;;;19.60;76.90;;;;;;4985032;28;97366;-48
2021/03/25 12:05:33;;;;;;;2.05;1.70;;;19.60;76.80;;;;;;4985652;28;97051;-48
2021/03/25 12:08:18;;;;;;;2.45;1.77;;;19.50;76.80;;;;;;4985832;28;95835;-50
2021/03/25 12:11:04;;;;;;;1.92;1.52;;;19.50;77.00;;;;;;4982350;28;96460;-49
2021/03/25 12:13:34;;;;;;;1.20;1.10;;;19.50;76.90;;;;;;4985576;28;96200;-48
2021/03/25 12:16:08;;;;;;;1.30;1.20;;;19.50;77.10;;;;;;4983200;28;96491;-49
2021/03/25 12:18:46;;;;;;;1.95;1.42;;;19.50;77.10;;;;;;4986261;28;95978;-50
2021/03/25 12:21:23;;;;;;;1.30;1.20;;;19.50;77.00;;;;;;4981522;28;96714;-49
2021/03/25 12:23:58;;;;;;;1.23;1.13;;;19.50;77.00;;;;;;4987136;28;96284;-51
2021/03/25 12:26:28;;;;;;;1.45;1.35;;;19.40;77.00;;;;;;4981988;28;95987;-50
2021/03/25 12:29:03;;;;;;;1.77;1.55;;;19.50;76.80;;;;;;5003683;28;96557;-50
2021/03/25 12:31:42;;;;;;;1.33;1.20;;;19.50;76.70;;;;;;4980956;28;98634;-50
2021/03/25 12:34:32;;;;;;;2.22;1.33;;;19.50;76.70;;;;;;4988996;28;95707;-54
2021/03/25 12:37:05;;;;;;;1.23;0.90;;;19.50;77.30;;;;;;4991193;28;95800;-50
2021/03/25 12:39:35;;;;;;;1.15;1.10;;;19.50;76.70;;;;;;4990581;28;95934;-51
2021/03/25 12:42:05;;;;;;;1.42;1.33;;;19.40;76.70;;;;;;4985173;28;96197;-51
2021/03/25 12:44:36;;;;;;;1.35;1.10;;;19.40;76.60;;;;;;4988537;28;95757;-50
2021/03/25 12:47:08;;;;;;;1.40;1.10;;;19.40;76.60;;;;;;4987162;28;95725;-50
2021/03/25 12:50:01;;;;;;;1.10;1.02;;;19.40;76.60;;;;;;4996528;28;95835;-51
2021/03/25 12:52:33;;;;;;;1.27;0.73;;;19.40;76.60;;;;;;4986518;28;96750;-51
2021/03/25 12:55:05;;;;;;;1.50;1.38;;;19.40;76.60;;;;;;4989903;28;96186;-53
2021/03/25 12:57:35;;;;;;;1.20;1.10;;;19.30;76.60;;;;;;4986868;28;95808;-51
2021/03/25 13:00:36;;;;;;;0.88;0.75;;;19.30;76.60;;;;;;4988398;28;96601;-52
2021/03/25 13:03:29;;;;;;;1.30;1.13;;;19.30;76.60;;;;;;4983624;28;96838;-55
2021/03/25 13:06:00;;;;;;;1.50;1.15;;;19.30;76.60;;;;;;4989498;28;95786;-53
2021/03/25 13:08:32;;;;;;;0.80;0.80;;;19.30;76.70;;;;;;4984971;28;95348;-55
2021/03/25 13:11:17;;;;;;;1.10;1.00;;;19.30;76.70;;;;;;4989071;28;95599;-50
2021/03/25 13:13:48;;;;;;;0.85;0.85;;;19.20;76.70;;;;;;4985216;28;96053;-51
2021/03/25 13:16:18;;;;;;;1.35;1.13;;;19.20;76.70;;;;;;4987204;28;97035;-55
2021/03/25 13:18:49;;;;;;;1.20;1.00;;;19.20;76.80;;;;;;4984142;28;98784;-51
2021/03/25 13:21:20;;;;;;;1.52;0.93;;;19.20;76.80;;;;;;4991989;28;95853;-52
2021/03/25 13:23:51;;;;;;;0.90;0.80;;;19.20;76.80;;;;;;4986017;28;96914;-52
2021/03/25 13:26:21;;;;;;;0.80;0.80;;;19.20;76.90;;;;;;4994334;28;95768;-53
2021/03/25 13:28:51;;;;;;;1.50;0.90;;;19.20;76.90;;;;;;4984987;28;95746;-54
2021/03/25 13:31:22;;;;;;;1.17;0.93;;;19.10;76.90;;;;;;4992692;28;95424;-54
2021/03/25 13:33:53;;;;;;;;;;;19.20;77.00;;;;;;4984675;28;96372;-56
2021/03/25 13:36:24;;;;;;;0.80;0.80;;;19.10;77.00;;;;;;4991813;28;96257;-54
2021/03/25 13:38:55;;;;;;;0.70;0.70;;;19.10;76.90;;;;;;4985340;28;97222;-55
2021/03/25 13:41:26;;;;;;;0.80;0.80;;;19.10;76.90;;;;;;4984839;28;95475;-56
2021/03/25 13:43:58;;;;;;;2.08;1.00;;;19.10;76.90;;;;;;4989379;28;95951;-54
2021/03/25 13:46:29;;;;;;;1.08;0.88;;;19.10;77.00;;;;;;4986502;28;95772;-55
2021/03/25 13:49:01;;;;;;;1.15;1.05;;;19.10;77.00;;;;;;4987573;28;95785;-54
2021/03/25 13:51:33;;;;;;;1.20;1.05;;;19.10;77.10;;;;;;4985601;28;96169;-51
2021/03/25 13:54:08;;;;;;;0.85;0.85;;;19.00;77.00;;;;;;4989628;28;96798;-51
2021/03/25 13:56:38;;;;;;;0.70;0.70;;;19.00;77.10;;;;;;4985854;28;96169;-52
2021/03/25 13:59:08;;;;;;;0.95;0.90;;;19.10;77.10;;;;;;4989654;28;95704;-51
2021/03/25 14:01:37;;;;;;;0.70;0.70;;;19.00;77.10;;;;;;4985794;28;95758;-52